sensor_id;sensor_type;location;lat;lon;timestamp;pressure;altitude;pressure_sealevel;temperature;humidity
6899;BME280;3488;42.616;23.350;2023-03-15T00:00:23;62547.44;;;5.29;47.26
6899;BME280;3488;42.616;23.350;2023-03-15T00:02:50;62538.84;;;5.28;47.23
6899;BME280;3488;42.616;23.350;2023-03-15T00:05:17;62547.53;;;5.34;46.62
6899;BME280;3488;42.616;23.350;2023-03-15T00:07:44;62548.97;;;5.30;46.82
6899;BME280;3488;42.616;23.350;2023-03-15T00:10:11;62542.34;;;5.26;47.22
6899;BME280;3488;42.616;23.350;2023-03-15T00:12:38;62545.44;;;5.29;49.53
6899;BME280;3488;42.616;23.350;2023-03-15T00:15:07;62542.34;;;5.26;51.99
6899;BME280;3488;42.616;23.350;2023-03-15T00:17:36;62550.03;;;5.31;53.92
6899;BME280;3488;42.616;23.350;2023-03-15T00:20:04;62536.22;;;5.23;53.80
6899;BME280;3488;42.616;23.350;2023-03-15T00:22:32;62542.84;;;5.27;54.41
6899;BME280;3488;42.616;23.350;2023-03-15T00:24:59;62545.44;;;5.29;54.76
6899;BME280;3488;42.616;23.350;2023-03-15T00:27:26;62544.34;;;5.26;54.91
6899;BME280;3488;42.616;23.350;2023-03-15T00:29:53;62549.50;;;5.31;54.75
6899;BME280;3488;42.616;23.350;2023-03-15T00:32:19;62546.47;;;5.30;54.90
6899;BME280;3488;42.616;23.350;2023-03-15T00:34:48;62540.84;;;5.27;55.85
6899;BME280;3488;42.616;23.350;2023-03-15T00:37:19;62539.75;;;5.24;55.51
6899;BME280;3488;42.616;23.350;2023-03-15T00:39:50;62552.19;;;5.38;54.86
6899;BME280;3488;42.616;23.350;2023-03-15T00:42:20;62554.28;;;5.43;54.16
6899;BME280;3488;42.616;23.350;2023-03-15T00:44:52;62563.50;;;5.49;55.01
6899;BME280;3488;42.616;23.350;2023-03-15T00:47:19;62563.00;;;5.49;55.00
6899;BME280;3488;42.616;23.350;2023-03-15T00:49:48;62561.34;;;5.42;54.51
6899;BME280;3488;42.616;23.350;2023-03-15T00:52:15;62560.38;;;5.44;54.92
6899;BME280;3488;42.616;23.350;2023-03-15T00:54:42;62568.03;;;5.49;54.90
6899;BME280;3488;42.616;23.350;2023-03-15T00:57:09;62560.97;;;5.49;55.09
6899;BME280;3488;42.616;23.350;2023-03-15T00:59:36;62570.16;;;5.53;55.67
6899;BME280;3488;42.616;23.350;2023-03-15T01:02:04;62572.78;;;5.58;55.99
6899;BME280;3488;42.616;23.350;2023-03-15T01:04:31;62574.31;;;5.60;55.63
6899;BME280;3488;42.616;23.350;2023-03-15T01:07:00;62575.31;;;5.58;56.94
6899;BME280;3488;42.616;23.350;2023-03-15T01:09:27;62549.53;;;5.33;57.30
6899;BME280;3488;42.616;23.350;2023-03-15T01:11:55;62553.72;;;5.40;56.99
6899;BME280;3488;42.616;23.350;2023-03-15T01:14:23;62562.88;;;5.44;57.35
6899;BME280;3488;42.616;23.350;2023-03-15T01:16:50;62555.31;;;5.44;58.02
6899;BME280;3488;42.616;23.350;2023-03-15T01:19:17;62562.94;;;5.46;57.58
6899;BME280;3488;42.616;23.350;2023-03-15T01:21:44;62567.53;;;5.48;57.17
6899;BME280;3488;42.616;23.350;2023-03-15T01:24:14;62568.09;;;5.51;57.07
6899;BME280;3488;42.616;23.350;2023-03-15T01:26:40;62573.78;;;5.57;57.04
6899;BME280;3488;42.616;23.350;2023-03-15T01:29:07;62574.28;;;5.57;56.66
6899;BME280;3488;42.616;23.350;2023-03-15T01:31:35;62574.28;;;5.57;56.95
6899;BME280;3488;42.616;23.350;2023-03-15T01:34:02;62573.81;;;5.59;56.28
6899;BME280;3488;42.616;23.350;2023-03-15T01:36:29;62576.84;;;5.60;55.78
6899;BME280;3488;42.616;23.350;2023-03-15T01:38:56;62578.84;;;5.59;55.63
6899;BME280;3488;42.616;23.350;2023-03-15T01:41:25;62576.28;;;5.57;55.89
6899;BME280;3488;42.616;23.350;2023-03-15T01:43:52;62570.19;;;5.56;56.55
6899;BME280;3488;42.616;23.350;2023-03-15T01:46:25;62571.19;;;5.54;56.73
6899;BME280;3488;42.616;23.350;2023-03-15T01:48:56;62574.28;;;5.57;57.33
6899;BME280;3488;42.616;23.350;2023-03-15T01:51:29;62572.22;;;5.55;57.44
6899;BME280;3488;42.616;23.350;2023-03-15T01:54:03;62561.91;;;5.45;58.37
6899;BME280;3488;42.616;23.350;2023-03-15T01:56:35;62563.50;;;5.49;58.73
6899;BME280;3488;42.616;23.350;2023-03-15T01:59:04;62559.44;;;5.48;59.13
6899;BME280;3488;42.616;23.350;2023-03-15T02:01:35;62564.44;;;5.45;58.20
6899;BME280;3488;42.616;23.350;2023-03-15T02:04:05;62563.97;;;5.47;58.25
6899;BME280;3488;42.616;23.350;2023-03-15T02:06:33;62558.81;;;5.42;58.80
6899;BME280;3488;42.616;23.350;2023-03-15T02:09:04;62551.16;;;5.37;58.47
6899;BME280;3488;42.616;23.350;2023-03-15T02:11:34;62546.41;;;5.28;59.10
6899;BME280;3488;42.616;23.350;2023-03-15T02:14:03;62550.53;;;5.32;58.48
6899;BME280;3488;42.616;23.350;2023-03-15T02:16:31;62542.38;;;5.29;58.70
6899;BME280;3488;42.616;23.350;2023-03-15T02:18:58;62539.81;;;5.26;57.84
6899;BME280;3488;42.616;23.350;2023-03-15T02:21:38;62545.91;;;5.27;59.17
6899;BME280;3488;42.616;23.350;2023-03-15T02:24:19;62538.25;;;5.25;58.79
6899;BME280;3488;42.616;23.350;2023-03-15T02:26:53;62537.66;;;5.19;58.61
6899;BME280;3488;42.616;23.350;2023-03-15T02:29:24;62524.81;;;5.09;58.69
6899;BME280;3488;42.616;23.350;2023-03-15T02:31:52;62515.06;;;5.00;60.15
6899;BME280;3488;42.616;23.350;2023-03-15T02:34:20;62523.75;;;5.06;60.07
6899;BME280;3488;42.616;23.350;2023-03-15T02:36:50;62528.38;;;5.10;59.69
6899;BME280;3488;42.616;23.350;2023-03-15T02:39:20;62524.81;;;5.09;60.39
6899;BME280;3488;42.616;23.350;2023-03-15T02:41:51;62524.25;;;5.06;61.20
6899;BME280;3488;42.616;23.350;2023-03-15T02:44:24;62524.81;;;5.09;59.90
6899;BME280;3488;42.616;23.350;2023-03-15T02:46:54;62515.16;;;5.05;60.00
6899;BME280;3488;42.616;23.350;2023-03-15T02:49:24;62513.06;;;5.00;61.12
6899;BME280;3488;42.616;23.350;2023-03-15T02:51:53;62520.19;;;5.05;61.57
6899;BME280;3488;42.616;23.350;2023-03-15T02:54:19;62508.91;;;4.96;61.80
6899;BME280;3488;42.616;23.350;2023-03-15T02:56:46;62501.25;;;4.91;61.25
6899;BME280;3488;42.616;23.350;2023-03-15T02:59:13;62500.69;;;4.88;61.06
6899;BME280;3488;42.616;23.350;2023-03-15T03:01:42;62500.63;;;4.86;61.19
6899;BME280;3488;42.616;23.350;2023-03-15T03:04:10;62490.34;;;4.76;62.31
6899;BME280;3488;42.616;23.350;2023-03-15T03:06:37;62486.22;;;4.71;62.45
6899;BME280;3488;42.616;23.350;2023-03-15T03:09:04;62486.69;;;4.69;62.40
6899;BME280;3488;42.616;23.350;2023-03-15T03:11:31;62476.00;;;4.64;62.69
6899;BME280;3488;42.616;23.350;2023-03-15T03:13:58;62469.88;;;4.60;62.64
6899;BME280;3488;42.616;23.350;2023-03-15T03:16:25;62468.81;;;4.59;63.31
6899;BME280;3488;42.616;23.350;2023-03-15T03:18:54;62468.25;;;4.56;64.02
6899;BME280;3488;42.616;23.350;2023-03-15T03:21:20;62461.56;;;4.50;64.34
6899;BME280;3488;42.616;23.350;2023-03-15T03:23:47;62476.91;;;4.60;62.88
6899;BME280;3488;42.616;23.350;2023-03-15T03:26:16;62466.72;;;4.55;63.21
6899;BME280;3488;42.616;23.350;2023-03-15T03:28:45;62452.31;;;4.41;63.94
6899;BME280;3488;42.616;23.350;2023-03-15T03:31:18;62451.16;;;4.35;63.75
6899;BME280;3488;42.616;23.350;2023-03-15T03:33:45;62460.44;;;4.44;64.54
6899;BME280;3488;42.616;23.350;2023-03-15T03:36:14;62471.25;;;4.54;64.17
6899;BME280;3488;42.616;23.350;2023-03-15T03:38:43;62473.38;;;4.59;63.81
6899;BME280;3488;42.616;23.350;2023-03-15T03:41:12;62478.50;;;4.64;63.20
6899;BME280;3488;42.616;23.350;2023-03-15T03:43:39;62481.13;;;4.69;62.82
6899;BME280;3488;42.616;23.350;2023-03-15T03:46:06;62484.13;;;4.67;62.97
6899;BME280;3488;42.616;23.350;2023-03-15T03:48:33;62482.06;;;4.65;65.53
6899;BME280;3488;42.616;23.350;2023-03-15T03:51:01;62492.41;;;4.78;65.19
6899;BME280;3488;42.616;23.350;2023-03-15T03:53:29;62487.34;;;4.78;64.47
6899;BME280;3488;42.616;23.350;2023-03-15T03:55:56;62495.59;;;4.86;64.01
6899;BME280;3488;42.616;23.350;2023-03-15T03:58:23;62493.47;;;4.81;62.34
6899;BME280;3488;42.616;23.350;2023-03-15T04:00:50;62503.72;;;4.89;62.80
6899;BME280;3488;42.616;23.350;2023-03-15T04:03:19;62501.78;;;4.92;63.40
6899;BME280;3488;42.616;23.350;2023-03-15T04:05:52;62514.03;;;4.99;63.42
6899;BME280;3488;42.616;23.350;2023-03-15T04:08:19;62507.91;;;4.95;64.51
6899;BME280;3488;42.616;23.350;2023-03-15T04:10:50;62513.09;;;5.03;65.75
6899;BME280;3488;42.616;23.350;2023-03-15T04:13:18;62510.53;;;5.00;67.32
6899;BME280;3488;42.616;23.350;2023-03-15T04:15:46;62492.97;;;4.81;67.42
6899;BME280;3488;42.616;23.350;2023-03-15T04:18:14;62479.06;;;4.67;67.81
6899;BME280;3488;42.616;23.350;2023-03-15T04:20:41;62488.84;;;4.77;65.52
6899;BME280;3488;42.616;23.350;2023-03-15T04:23:11;62494.47;;;4.80;64.10
6899;BME280;3488;42.616;23.350;2023-03-15T04:25:39;62496.06;;;4.84;63.68
6899;BME280;3488;42.616;23.350;2023-03-15T04:28:08;62499.16;;;4.87;63.20
6899;BME280;3488;42.616;23.350;2023-03-15T04:30:36;62506.81;;;4.92;65.13
6899;BME280;3488;42.616;23.350;2023-03-15T04:33:03;62510.94;;;4.96;63.64
6899;BME280;3488;42.616;23.350;2023-03-15T04:35:33;62505.84;;;4.93;63.30
6899;BME280;3488;42.616;23.350;2023-03-15T04:38:01;62512.47;;;4.97;63.84
6899;BME280;3488;42.616;23.350;2023-03-15T04:40:29;62519.13;;;5.01;64.25
6899;BME280;3488;42.616;23.350;2023-03-15T04:43:00;62518.66;;;5.03;64.98
6899;BME280;3488;42.616;23.350;2023-03-15T04:45:30;62520.19;;;5.05;66.47
6899;BME280;3488;42.616;23.350;2023-03-15T04:47:58;62527.41;;;5.12;65.46
6899;BME280;3488;42.616;23.350;2023-03-15T04:50:26;62517.16;;;5.04;65.39
6899;BME280;3488;42.616;23.350;2023-03-15T04:52:54;62517.16;;;5.04;65.51
6899;BME280;3488;42.616;23.350;2023-03-15T04:55:23;62520.72;;;5.05;64.91
6899;BME280;3488;42.616;23.350;2023-03-15T04:57:50;62530.03;;;5.17;62.58
6899;BME280;3488;42.616;23.350;2023-03-15T05:00:18;62529.00;;;5.16;62.51
6899;BME280;3488;42.616;23.350;2023-03-15T05:02:47;62523.28;;;5.08;63.73
6899;BME280;3488;42.616;23.350;2023-03-15T05:05:20;62513.50;;;4.98;67.41
6899;BME280;3488;42.616;23.350;2023-03-15T05:07:48;62516.13;;;5.03;68.42
6899;BME280;3488;42.616;23.350;2023-03-15T05:10:16;62519.78;;;5.09;65.98
6899;BME280;3488;42.616;23.350;2023-03-15T05:12:43;62507.94;;;4.98;67.75
6899;BME280;3488;42.616;23.350;2023-03-15T05:15:12;62527.94;;;5.12;65.20
6899;BME280;3488;42.616;23.350;2023-03-15T05:17:38;62519.75;;;5.07;65.59
6899;BME280;3488;42.616;23.350;2023-03-15T05:20:08;62498.63;;;4.86;68.26
6899;BME280;3488;42.616;23.350;2023-03-15T05:22:37;62502.25;;;4.90;69.18
6899;BME280;3488;42.616;23.350;2023-03-15T05:25:04;62510.53;;;5.00;69.23
6899;BME280;3488;42.616;23.350;2023-03-15T05:27:32;62513.06;;;5.00;70.14
6899;BME280;3488;42.616;23.350;2023-03-15T05:29:59;62535.59;;;5.17;69.70
6899;BME280;3488;42.616;23.350;2023-03-15T05:32:28;62532.56;;;5.17;70.05
6899;BME280;3488;42.616;23.350;2023-03-15T05:34:59;62537.19;;;5.21;69.66
6899;BME280;3488;42.616;23.350;2023-03-15T05:37:27;62523.38;;;5.13;67.02
6899;BME280;3488;42.616;23.350;2023-03-15T05:39:54;62527.94;;;5.12;67.47
6899;BME280;3488;42.616;23.350;2023-03-15T05:42:22;62548.97;;;5.30;66.35
6899;BME280;3488;42.616;23.350;2023-03-15T05:44:52;62546.56;;;5.35;65.25
6899;BME280;3488;42.616;23.350;2023-03-15T05:47:19;62538.75;;;5.23;65.91
6899;BME280;3488;42.616;23.350;2023-03-15T05:49:46;62522.81;;;5.10;66.98
6899;BME280;3488;42.616;23.350;2023-03-15T05:52:13;62545.47;;;5.32;66.59
6899;BME280;3488;42.616;23.350;2023-03-15T05:54:42;62556.81;;;5.43;66.44
6899;BME280;3488;42.616;23.350;2023-03-15T05:57:10;62571.25;;;5.57;65.66
6899;BME280;3488;42.616;23.350;2023-03-15T05:59:37;62553.25;;;5.42;66.03
6899;BME280;3488;42.616;23.350;2023-03-15T06:02:04;62567.06;;;5.50;66.21
6899;BME280;3488;42.616;23.350;2023-03-15T06:04:33;62576.94;;;5.65;66.10
6899;BME280;3488;42.616;23.350;2023-03-15T06:07:00;62578.84;;;5.59;67.49
6899;BME280;3488;42.616;23.350;2023-03-15T06:09:28;62579.47;;;5.65;67.59
6899;BME280;3488;42.616;23.350;2023-03-15T06:11:56;62602.78;;;5.93;66.44
6899;BME280;3488;42.616;23.350;2023-03-15T06:14:24;62627.31;;;6.07;66.78
6899;BME280;3488;42.616;23.350;2023-03-15T06:16:51;62648.03;;;6.32;66.38
6899;BME280;3488;42.616;23.350;2023-03-15T06:19:18;62663.97;;;6.45;63.42
6899;BME280;3488;42.616;23.350;2023-03-15T06:21:46;62675.88;;;6.59;60.39
6899;BME280;3488;42.616;23.350;2023-03-15T06:24:13;62706.78;;;6.86;59.16
6899;BME280;3488;42.616;23.350;2023-03-15T06:26:40;62696.97;;;6.77;58.85
6899;BME280;3488;42.616;23.350;2023-03-15T06:29:08;62714.03;;;6.96;58.07
6899;BME280;3488;42.616;23.350;2023-03-15T06:31:36;62709.34;;;6.89;58.75
6899;BME280;3488;42.616;23.350;2023-03-15T06:34:04;62707.91;;;6.92;58.82
6899;BME280;3488;42.616;23.350;2023-03-15T06:36:32;62737.81;;;7.22;56.94
6899;BME280;3488;42.616;23.350;2023-03-15T06:38:59;62744.47;;;7.26;55.88
6899;BME280;3488;42.616;23.350;2023-03-15T06:41:27;62745.00;;;7.26;56.29
6899;BME280;3488;42.616;23.350;2023-03-15T06:43:54;62759.94;;;7.41;54.87
6899;BME280;3488;42.616;23.350;2023-03-15T06:46:23;62770.75;;;7.49;55.02
6899;BME280;3488;42.616;23.350;2023-03-15T06:48:50;62764.09;;;7.45;54.81
6899;BME280;3488;42.616;23.350;2023-03-15T06:51:17;62785.16;;;7.60;54.81
6899;BME280;3488;42.616;23.350;2023-03-15T06:53:44;62766.63;;;7.45;54.62
6899;BME280;3488;42.616;23.350;2023-03-15T06:56:11;62788.28;;;7.66;54.04
6899;BME280;3488;42.616;23.350;2023-03-15T06:58:38;62766.16;;;7.47;54.34
6899;BME280;3488;42.616;23.350;2023-03-15T07:01:06;62784.72;;;7.65;54.00
6899;BME280;3488;42.616;23.350;2023-03-15T07:03:36;62783.59;;;7.59;54.71
6899;BME280;3488;42.616;23.350;2023-03-15T07:06:05;62788.34;;;7.68;54.23
6899;BME280;3488;42.616;23.350;2023-03-15T07:08:32;62795.09;;;7.77;53.22
6899;BME280;3488;42.616;23.350;2023-03-15T07:10:59;62814.66;;;7.94;53.13
6899;BME280;3488;42.616;23.350;2023-03-15T07:13:28;62823.91;;;8.00;52.27
6899;BME280;3488;42.616;23.350;2023-03-15T07:15:56;62835.81;;;8.14;52.69
6899;BME280;3488;42.616;23.350;2023-03-15T07:18:23;62864.25;;;8.42;51.82
6899;BME280;3488;42.616;23.350;2023-03-15T07:20:56;62874.06;;;8.52;51.09
6899;BME280;3488;42.616;23.350;2023-03-15T07:23:23;62884.91;;;8.62;50.97
6899;BME280;3488;42.616;23.350;2023-03-15T07:25:50;62873.09;;;8.53;50.88
6899;BME280;3488;42.616;23.350;2023-03-15T07:28:18;62885.91;;;8.61;50.02
6899;BME280;3488;42.616;23.350;2023-03-15T07:30:54;62885.44;;;8.63;50.17
6899;BME280;3488;42.616;23.350;2023-03-15T07:33:25;62892.09;;;8.67;49.91
6899;BME280;3488;42.616;23.350;2023-03-15T07:35:53;62940.69;;;9.14;48.74
6899;BME280;3488;42.616;23.350;2023-03-15T07:38:23;62939.13;;;9.12;48.18
6899;BME280;3488;42.616;23.350;2023-03-15T07:40:51;62925.78;;;9.04;48.49
6899;BME280;3488;42.616;23.350;2023-03-15T07:43:19;62910.66;;;8.82;47.88
6899;BME280;3488;42.616;23.350;2023-03-15T07:45:46;62875.59;;;8.51;49.04
6899;BME280;3488;42.616;23.350;2023-03-15T07:48:13;62898.31;;;8.73;48.59
6899;BME280;3488;42.616;23.350;2023-03-15T07:50:41;62923.09;;;8.97;48.47
6899;BME280;3488;42.616;23.350;2023-03-15T07:53:08;62935.03;;;9.11;47.98
6899;BME280;3488;42.616;23.350;2023-03-15T07:55:36;62923.22;;;9.04;47.96
6899;BME280;3488;42.616;23.350;2023-03-15T07:58:03;62934.00;;;9.10;47.36
6899;BME280;3488;42.616;23.350;2023-03-15T08:00:30;62899.88;;;8.77;48.75
6899;BME280;3488;42.616;23.350;2023-03-15T08:02:57;62890.59;;;8.68;48.81
6899;BME280;3488;42.616;23.350;2023-03-15T08:05:25;62898.88;;;8.76;49.94
6899;BME280;3488;42.616;23.350;2023-03-15T08:07:52;62947.47;;;9.25;49.34
6899;BME280;3488;42.616;23.350;2023-03-15T08:10:19;62997.00;;;9.66;47.80
6899;BME280;3488;42.616;23.350;2023-03-15T08:12:47;62980.00;;;9.55;47.13
6899;BME280;3488;42.616;23.350;2023-03-15T08:15:14;63014.66;;;9.88;46.22
6899;BME280;3488;42.616;23.350;2023-03-15T08:17:42;63023.44;;;9.97;46.15
6899;BME280;3488;42.616;23.350;2023-03-15T08:20:10;63055.00;;;10.27;45.99
6899;BME280;3488;42.616;23.350;2023-03-15T08:22:39;63086.03;;;10.55;45.56
6899;BME280;3488;42.616;23.350;2023-03-15T08:25:09;63106.25;;;10.77;44.58
6899;BME280;3488;42.616;23.350;2023-03-15T08:27:37;63087.63;;;10.59;44.18
6899;BME280;3488;42.616;23.350;2023-03-15T08:30:07;63110.91;;;10.82;43.67
6899;BME280;3488;42.616;23.350;2023-03-15T08:32:36;63142.94;;;11.08;43.91
6899;BME280;3488;42.616;23.350;2023-03-15T08:35:03;63171.44;;;11.38;43.53
6899;BME280;3488;42.616;23.350;2023-03-15T08:37:30;63185.91;;;11.49;42.73
6899;BME280;3488;42.616;23.350;2023-03-15T08:39:58;63126.91;;;10.95;43.02
6899;BME280;3488;42.616;23.350;2023-03-15T08:42:31;63140.88;;;11.08;43.40
6899;BME280;3488;42.616;23.350;2023-03-15T08:44:58;63144.09;;;11.16;43.27
6899;BME280;3488;42.616;23.350;2023-03-15T08:47:27;63138.25;;;11.03;42.59
6899;BME280;3488;42.616;23.350;2023-03-15T08:49:55;63113.47;;;10.82;43.57
6899;BME280;3488;42.616;23.350;2023-03-15T08:52:22;63095.81;;;10.62;44.17
6899;BME280;3488;42.616;23.350;2023-03-15T08:54:49;63088.09;;;10.57;43.59
6899;BME280;3488;42.616;23.350;2023-03-15T08:57:16;63082.94;;;10.55;43.98
6899;BME280;3488;42.616;23.350;2023-03-15T08:59:43;63096.88;;;10.66;43.81
6899;BME280;3488;42.616;23.350;2023-03-15T09:02:10;63123.28;;;10.91;43.17
6899;BME280;3488;42.616;23.350;2023-03-15T09:04:40;63120.66;;;10.86;43.46
6899;BME280;3488;42.616;23.350;2023-03-15T09:07:07;63153.38;;;11.23;43.51
6899;BME280;3488;42.616;23.350;2023-03-15T09:09:34;63200.41;;;11.63;42.42
6899;BME280;3488;42.616;23.350;2023-03-15T09:12:01;63202.03;;;11.68;41.34
6899;BME280;3488;42.616;23.350;2023-03-15T09:14:27;63169.28;;;11.31;42.53
6899;BME280;3488;42.616;23.350;2023-03-15T09:16:54;63062.25;;;10.34;43.71
6899;BME280;3488;42.616;23.350;2023-03-15T09:19:22;63107.75;;;10.76;43.34
6899;BME280;3488;42.616;23.350;2023-03-15T09:21:50;63107.72;;;10.74;43.51
6899;BME280;3488;42.616;23.350;2023-03-15T09:24:18;63107.72;;;10.74;42.97
6899;BME280;3488;42.616;23.350;2023-03-15T09:26:45;63072.00;;;10.39;44.42
6899;BME280;3488;42.616;23.350;2023-03-15T09:29:11;63087.56;;;10.57;44.54
6899;BME280;3488;42.616;23.350;2023-03-15T09:31:39;63113.97;;;10.82;43.07
6899;BME280;3488;42.616;23.350;2023-03-15T09:34:05;63134.69;;;11.02;43.16
6899;BME280;3488;42.616;23.350;2023-03-15T09:36:32;63164.16;;;11.28;42.47
6899;BME280;3488;42.616;23.350;2023-03-15T09:39:01;63182.84;;;11.49;42.83
6899;BME280;3488;42.616;23.350;2023-03-15T09:41:39;63227.91;;;11.93;42.28
6899;BME280;3488;42.616;23.350;2023-03-15T09:44:27;63226.88;;;11.92;41.71
6899;BME280;3488;42.616;23.350;2023-03-15T09:47:07;63238.78;;;12.01;41.80
6899;BME280;3488;42.616;23.350;2023-03-15T09:49:43;63262.13;;;12.26;41.80
6899;BME280;3488;42.616;23.350;2023-03-15T09:52:21;63235.69;;;12.00;43.03
6899;BME280;3488;42.616;23.350;2023-03-15T09:54:57;63247.06;;;12.09;42.94
6899;BME280;3488;42.616;23.350;2023-03-15T09:57:32;63250.22;;;12.14;41.86
6899;BME280;3488;42.616;23.350;2023-03-15T10:00:04;63273.47;;;12.34;40.93
6899;BME280;3488;42.616;23.350;2023-03-15T10:02:39;63217.56;;;11.83;41.94
6899;BME280;3488;42.616;23.350;2023-03-15T10:05:12;63218.59;;;11.84;42.31
6899;BME280;3488;42.616;23.350;2023-03-15T10:07:43;63256.91;;;12.18;42.87
6899;BME280;3488;42.616;23.350;2023-03-15T10:10:17;63240.34;;;12.05;41.53
6899;BME280;3488;42.616;23.350;2023-03-15T10:12:50;63256.94;;;12.21;41.10
6899;BME280;3488;42.616;23.350;2023-03-15T10:15:28;63236.28;;;12.06;41.34
6899;BME280;3488;42.616;23.350;2023-03-15T10:18:13;63243.47;;;12.08;41.43
6899;BME280;3488;42.616;23.350;2023-03-15T10:20:45;63276.63;;;12.40;40.91
6899;BME280;3488;42.616;23.350;2023-03-15T10:23:18;63270.47;;;12.36;40.71
6899;BME280;3488;42.616;23.350;2023-03-15T10:25:49;63256.94;;;12.21;40.66
6899;BME280;3488;42.616;23.350;2023-03-15T10:28:23;63289.13;;;12.54;40.05
6899;BME280;3488;42.616;23.350;2023-03-15T10:30:51;63310.84;;;12.73;39.65
6899;BME280;3488;42.616;23.350;2023-03-15T10:33:22;63313.91;;;12.73;39.98
6899;BME280;3488;42.616;23.350;2023-03-15T10:35:52;63288.56;;;12.51;40.33
6899;BME280;3488;42.616;23.350;2023-03-15T10:38:21;63281.28;;;12.44;40.53
6899;BME280;3488;42.616;23.350;2023-03-15T10:40:51;63232.63;;;12.00;41.68
6899;BME280;3488;42.616;23.350;2023-03-15T10:43:21;63239.31;;;12.04;41.75
6899;BME280;3488;42.616;23.350;2023-03-15T10:45:59;63226.88;;;11.92;41.48
6899;BME280;3488;42.616;23.350;2023-03-15T10:48:27;63196.88;;;11.65;42.77
6899;BME280;3488;42.616;23.350;2023-03-15T10:50:55;63238.31;;;12.05;41.79
6899;BME280;3488;42.616;23.350;2023-03-15T10:53:23;63278.63;;;12.37;41.20
6899;BME280;3488;42.616;23.350;2023-03-15T10:56:00;63263.16;;;12.27;41.36
6899;BME280;3488;42.616;23.350;2023-03-15T10:58:37;63229.97;;;11.92;42.51
6899;BME280;3488;42.616;23.350;2023-03-15T11:01:07;63259.50;;;12.21;41.40
6899;BME280;3488;42.616;23.350;2023-03-15T11:03:35;63246.09;;;12.13;41.87
6899;BME280;3488;42.616;23.350;2023-03-15T11:06:17;63207.81;;;11.78;41.67
6899;BME280;3488;42.616;23.350;2023-03-15T11:08:45;63184.38;;;11.50;42.28
6899;BME280;3488;42.616;23.350;2023-03-15T11:11:13;63171.91;;;11.36;44.00
6899;BME280;3488;42.616;23.350;2023-03-15T11:13:41;63195.31;;;11.63;43.55
6899;BME280;3488;42.616;23.350;2023-03-15T11:16:20;63205.13;;;11.71;42.78
6899;BME280;3488;42.616;23.350;2023-03-15T11:18:50;63219.16;;;11.87;42.09
6899;BME280;3488;42.616;23.350;2023-03-15T11:21:22;63239.34;;;12.06;42.36
6899;BME280;3488;42.616;23.350;2023-03-15T11:23:51;63269.34;;;12.30;41.30
6899;BME280;3488;42.616;23.350;2023-03-15T11:26:23;63285.44;;;12.48;40.87
6899;BME280;3488;42.616;23.350;2023-03-15T11:28:53;63296.81;;;12.57;40.43
6899;BME280;3488;42.616;23.350;2023-03-15T11:31:25;63298.91;;;12.61;40.10
6899;BME280;3488;42.616;23.350;2023-03-15T11:33:56;63284.94;;;12.48;40.75
6899;BME280;3488;42.616;23.350;2023-03-15T11:36:27;63257.97;;;12.22;41.37
6899;BME280;3488;42.616;23.350;2023-03-15T11:38:58;63261.09;;;12.25;41.33
6899;BME280;3488;42.616;23.350;2023-03-15T11:41:32;63293.25;;;12.58;40.85
6899;BME280;3488;42.616;23.350;2023-03-15T11:44:07;63301.56;;;12.66;40.35
6899;BME280;3488;42.616;23.350;2023-03-15T11:46:41;63291.69;;;12.57;40.92
6899;BME280;3488;42.616;23.350;2023-03-15T11:49:14;63321.22;;;12.83;40.67
6899;BME280;3488;42.616;23.350;2023-03-15T11:51:43;63302.53;;;12.65;40.84
6899;BME280;3488;42.616;23.350;2023-03-15T11:54:12;63314.47;;;12.76;39.86
6899;BME280;3488;42.616;23.350;2023-03-15T11:56:52;63328.47;;;12.90;40.43
6899;BME280;3488;42.616;23.350;2023-03-15T11:59:24;63338.84;;;13.00;40.91
6899;BME280;3488;42.616;23.350;2023-03-15T12:01:55;63322.25;;;12.84;39.55
6899;BME280;3488;42.616;23.350;2023-03-15T12:04:39;63318.16;;;12.82;40.42
6899;BME280;3488;42.616;23.350;2023-03-15T12:07:24;63331.00;;;12.88;41.19
6899;BME280;3488;42.616;23.350;2023-03-15T12:09:54;63332.63;;;12.94;40.71
6899;BME280;3488;42.616;23.350;2023-03-15T12:12:42;63343.56;;;13.07;39.47
6899;BME280;3488;42.616;23.350;2023-03-15T12:15:42;63320.69;;;12.82;39.68
6899;BME280;3488;42.616;23.350;2023-03-15T12:18:15;63282.91;;;12.48;40.01
6899;BME280;3488;42.616;23.350;2023-03-15T12:20:49;63242.41;;;12.04;41.01
6899;BME280;3488;42.616;23.350;2023-03-15T12:23:28;63243.97;;;12.08;41.29
6899;BME280;3488;42.616;23.350;2023-03-15T12:25:58;63291.63;;;12.52;41.53
6899;BME280;3488;42.616;23.350;2023-03-15T12:28:34;63305.69;;;12.70;40.78
6899;BME280;3488;42.616;23.350;2023-03-15T12:31:03;63320.69;;;12.82;40.03
6899;BME280;3488;42.616;23.350;2023-03-15T12:33:33;63294.22;;;12.54;40.40
6899;BME280;3488;42.616;23.350;2023-03-15T12:36:15;63285.44;;;12.48;41.40
6899;BME280;3488;42.616;23.350;2023-03-15T12:38:53;63294.25;;;12.57;41.45
6899;BME280;3488;42.616;23.350;2023-03-15T12:41:36;63286.47;;;12.49;40.89
6899;BME280;3488;42.616;23.350;2023-03-15T12:44:36;63288.59;;;12.54;40.90
6899;BME280;3488;42.616;23.350;2023-03-15T12:47:04;63276.19;;;12.44;41.12
6899;BME280;3488;42.616;23.350;2023-03-15T12:49:36;63238.25;;;12.00;41.33
6899;BME280;3488;42.616;23.350;2023-03-15T12:52:05;63208.72;;;11.72;41.91
6899;BME280;3488;42.616;23.350;2023-03-15T12:54:43;63214.47;;;11.82;42.33
6899;BME280;3488;42.616;23.350;2023-03-15T12:57:13;63210.81;;;11.76;42.71
6899;BME280;3488;42.616;23.350;2023-03-15T12:59:48;63212.38;;;11.78;42.17
6899;BME280;3488;42.616;23.350;2023-03-15T13:02:24;63200.00;;;11.68;42.62
6899;BME280;3488;42.616;23.350;2023-03-15T13:05:03;63194.75;;;11.60;43.25
6899;BME280;3488;42.616;23.350;2023-03-15T13:07:44;63192.72;;;11.61;43.30
6899;BME280;3488;42.616;23.350;2023-03-15T13:10:36;63183.31;;;11.47;43.62
6899;BME280;3488;42.616;23.350;2023-03-15T13:13:16;63160.56;;;11.27;43.64
6899;BME280;3488;42.616;23.350;2023-03-15T13:15:59;63148.69;;;11.18;43.60
6899;BME280;3488;42.616;23.350;2023-03-15T13:18:34;63174.53;;;11.41;44.08
6899;BME280;3488;42.616;23.350;2023-03-15T13:21:10;63214.00;;;11.84;43.88
6899;BME280;3488;42.616;23.350;2023-03-15T13:23:43;63250.22;;;12.14;43.24
6899;BME280;3488;42.616;23.350;2023-03-15T13:26:42;63270.38;;;12.31;42.44
6899;BME280;3488;42.616;23.350;2023-03-15T13:29:13;63280.78;;;12.44;42.63
6899;BME280;3488;42.616;23.350;2023-03-15T13:31:45;63284.97;;;12.50;42.83